createdAt,value
2022-12-16T05:30:38.076Z,995.84
2022-12-16T05:31:38.125Z,995.83
2022-12-16T05:32:38.058Z,995.85
2022-12-16T05:33:38.024Z,995.81
2022-12-16T05:34:38.024Z,995.89
2022-12-16T05:35:38.037Z,995.84
2022-12-16T05:36:37.985Z,995.87
2022-12-16T05:37:37.972Z,995.85
2022-12-16T05:38:37.979Z,995.81
2022-12-16T05:39:37.963Z,995.77
2022-12-16T05:40:37.946Z,995.87
2022-12-16T05:41:37.953Z,995.86
2022-12-16T05:42:37.925Z,995.89
2022-12-16T05:43:37.916Z,995.93
2022-12-16T05:44:37.923Z,995.93
2022-12-16T05:45:37.982Z,995.96
2022-12-16T05:46:38.093Z,995.98
2022-12-16T05:47:37.880Z,995.93
2022-12-16T05:48:39.300Z,995.95
2022-12-16T05:49:37.850Z,995.93
2022-12-16T05:50:37.866Z,995.97
2022-12-16T05:51:37.861Z,995.92
2022-12-16T05:52:37.822Z,995.95
2022-12-16T05:53:37.813Z,995.92
2022-12-16T05:54:37.826Z,995.96
2022-12-16T05:55:37.786Z,996.00
2022-12-16T05:56:37.793Z,996.01
2022-12-16T05:57:37.772Z,996.01
2022-12-16T05:58:37.755Z,996.04
2022-12-16T05:59:37.753Z,996.06
2022-12-16T06:00:37.788Z,996.05
2022-12-16T06:01:37.835Z,996.07
2022-12-16T06:02:37.857Z,996.10
2022-12-16T06:03:38.388Z,996.08
2022-12-16T06:04:37.699Z,996.13
2022-12-16T06:05:37.712Z,996.16
2022-12-16T06:06:37.730Z,996.16
2022-12-16T06:07:37.676Z,996.19
2022-12-16T06:08:37.668Z,996.24
2022-12-16T06:09:37.650Z,996.26
2022-12-16T06:10:37.636Z,996.30
2022-12-16T06:11:37.694Z,996.28
2022-12-16T06:12:37.688Z,996.31
2022-12-16T06:13:37.615Z,996.29
2022-12-16T06:14:37.626Z,996.30
2022-12-16T06:15:37.587Z,996.35
2022-12-16T06:16:37.625Z,996.37
2022-12-16T06:17:37.587Z,996.37
2022-12-16T06:18:37.569Z,996.39
2022-12-16T06:19:37.544Z,996.39
2022-12-16T06:20:37.537Z,996.42
2022-12-16T06:21:37.529Z,996.42
2022-12-16T06:22:37.530Z,996.41
2022-12-16T06:23:37.826Z,996.41
2022-12-16T06:24:37.530Z,996.42
2022-12-16T06:25:37.489Z,996.42
2022-12-16T06:26:37.482Z,996.38
2022-12-16T06:27:37.469Z,996.42
2022-12-16T06:28:38.637Z,996.47
2022-12-16T06:29:37.470Z,996.48
2022-12-16T06:30:37.427Z,996.49
2022-12-16T06:31:37.487Z,996.49
2022-12-16T06:32:37.423Z,996.53
2022-12-16T06:33:37.419Z,996.54
2022-12-16T06:34:37.434Z,996.60
2022-12-16T06:35:37.384Z,996.64
2022-12-16T06:36:37.366Z,996.64
2022-12-16T06:37:37.369Z,996.66
2022-12-16T06:38:37.390Z,996.78
2022-12-16T06:39:37.344Z,996.70
2022-12-16T06:40:37.347Z,996.71
2022-12-16T06:41:37.316Z,996.73
2022-12-16T06:42:37.326Z,996.72
2022-12-16T06:43:37.306Z,996.71
2022-12-16T06:44:37.301Z,996.75
2022-12-16T06:45:37.340Z,996.74
2022-12-16T06:46:37.265Z,996.80
2022-12-16T06:47:37.260Z,996.83
2022-12-16T06:48:37.253Z,996.92
2022-12-16T06:49:37.239Z,996.88
2022-12-16T06:50:40.479Z,996.87
2022-12-16T06:51:38.245Z,996.87
2022-12-16T06:52:37.203Z,996.92
2022-12-16T06:53:37.197Z,996.94
2022-12-16T06:54:37.187Z,996.97
2022-12-16T06:55:37.173Z,996.98
2022-12-16T06:56:37.177Z,996.97
2022-12-16T06:57:37.180Z,997.04
2022-12-16T06:58:37.138Z,997.00
2022-12-16T06:59:37.133Z,997.04
2022-12-16T07:00:37.175Z,997.01
2022-12-16T07:01:37.234Z,997.01
2022-12-16T07:02:37.255Z,997.00
2022-12-16T07:03:37.649Z,997.03
2022-12-16T07:04:37.079Z,997.03
2022-12-16T07:05:37.094Z,997.06
2022-12-16T07:06:37.091Z,997.05
2022-12-16T07:07:37.055Z,997.09
2022-12-16T07:08:37.063Z,997.10
2022-12-16T07:09:37.047Z,997.13
2022-12-16T07:10:37.015Z,997.12
2022-12-16T07:11:37.016Z,997.17
2022-12-16T07:12:36.999Z,997.21
2022-12-16T07:13:37.013Z,997.21
2022-12-16T07:14:37.002Z,997.20
2022-12-16T07:15:36.984Z,997.19
2022-12-16T07:16:37.021Z,997.25
2022-12-16T07:17:36.955Z,997.24
2022-12-16T07:18:36.952Z,997.26
2022-12-16T07:19:36.948Z,997.24
2022-12-16T07:20:36.942Z,997.30
2022-12-16T07:21:36.912Z,997.31
2022-12-16T07:22:37.045Z,997.28
2022-12-16T07:23:36.891Z,997.30
2022-12-16T07:24:36.886Z,997.37
2022-12-16T07:25:36.869Z,997.34
2022-12-16T07:26:36.863Z,997.31
2022-12-16T07:27:36.845Z,997.32
2022-12-16T07:28:36.853Z,997.32
2022-12-16T07:29:36.828Z,997.37
2022-12-16T07:30:36.835Z,997.34
2022-12-16T07:31:36.890Z,997.30
2022-12-16T07:32:36.795Z,997.40
2022-12-16T07:33:36.966Z,997.42
2022-12-16T07:34:41.308Z,997.45
2022-12-16T07:35:37.763Z,997.47
2022-12-16T07:36:36.758Z,997.50
2022-12-16T07:37:36.744Z,997.52
2022-12-16T07:38:36.767Z,997.57
2022-12-16T07:39:36.750Z,997.61
2022-12-16T07:40:36.726Z,997.63
2022-12-16T07:41:36.695Z,997.64
2022-12-16T07:42:36.687Z,997.64
2022-12-16T07:43:36.845Z,997.68
2022-12-16T07:44:36.678Z,997.69
2022-12-16T07:45:41.674Z,997.73
2022-12-16T07:46:37.690Z,997.82
2022-12-16T07:47:36.656Z,997.82
2022-12-16T07:48:36.651Z,997.80
2022-12-16T07:49:36.629Z,997.80
2022-12-16T07:50:36.648Z,997.84
2022-12-16T07:51:36.605Z,997.87
2022-12-16T07:52:36.600Z,997.91
2022-12-16T07:53:36.916Z,997.93
2022-12-16T07:54:36.597Z,997.94
2022-12-16T07:55:36.611Z,997.91
2022-12-16T07:56:36.566Z,997.96
2022-12-16T07:57:36.541Z,997.90
2022-12-16T07:58:36.527Z,997.91
2022-12-16T07:59:36.521Z,997.92
2022-12-16T08:00:36.537Z,997.94
2022-12-16T08:01:36.592Z,997.96
2022-12-16T08:02:36.644Z,997.96
2022-12-16T08:03:37.311Z,998.03
2022-12-16T08:04:36.467Z,998.05
2022-12-16T08:05:36.456Z,998.07
2022-12-16T08:06:40.294Z,998.04
2022-12-16T08:07:36.452Z,998.08
2022-12-16T08:08:36.427Z,998.12
2022-12-16T08:09:36.436Z,998.14
2022-12-16T08:10:36.434Z,998.11
2022-12-16T08:11:36.397Z,998.16
2022-12-16T08:12:36.380Z,998.20
2022-12-16T08:13:36.810Z,998.17
2022-12-16T08:14:36.372Z,998.24
2022-12-16T08:15:36.356Z,998.20
2022-12-16T08:16:36.403Z,998.23
2022-12-16T08:17:36.332Z,998.20
2022-12-16T08:18:36.321Z,998.26
2022-12-16T08:19:36.321Z,998.24
2022-12-16T08:20:36.317Z,998.24
2022-12-16T08:21:36.295Z,998.25
2022-12-16T08:22:36.280Z,998.25
2022-12-16T08:23:36.600Z,998.23
2022-12-16T08:24:36.258Z,998.27
2022-12-16T08:25:36.253Z,998.24
2022-12-16T08:26:36.285Z,998.24
2022-12-16T08:27:36.236Z,998.23
2022-12-16T08:28:36.214Z,998.26
2022-12-16T08:29:45.052Z,998.28
2022-12-16T08:30:37.214Z,998.31
2022-12-16T08:31:36.188Z,998.30
2022-12-16T08:32:36.198Z,998.32
2022-12-16T08:33:36.654Z,998.34
2022-12-16T08:34:36.156Z,998.33
2022-12-16T08:35:36.145Z,998.38
2022-12-16T08:36:36.150Z,998.38
2022-12-16T08:37:36.128Z,998.39
2022-12-16T08:38:36.119Z,998.41
2022-12-16T08:39:36.107Z,998.36
2022-12-16T08:40:36.923Z,998.30
2022-12-16T08:41:36.088Z,998.35
2022-12-16T08:42:36.111Z,998.33
2022-12-16T08:43:36.557Z,998.30
2022-12-16T08:44:36.067Z,998.35
2022-12-16T08:45:36.040Z,998.37
2022-12-16T08:46:36.161Z,998.41
2022-12-16T08:47:36.045Z,998.44
2022-12-16T08:48:36.011Z,998.41
2022-12-16T08:49:36.000Z,998.48
2022-12-16T08:50:36.010Z,998.49
2022-12-16T08:51:35.983Z,998.51
2022-12-16T08:52:35.976Z,998.53
2022-12-16T08:53:36.391Z,998.52
2022-12-16T08:54:35.951Z,998.51
2022-12-16T08:55:35.933Z,998.47
2022-12-16T08:56:35.986Z,998.49
2022-12-16T08:57:35.916Z,998.54
2022-12-16T08:58:35.953Z,998.54
2022-12-16T08:59:35.894Z,998.52
2022-12-16T09:00:35.889Z,998.53
2022-12-16T09:01:35.981Z,998.57
2022-12-16T09:02:36.067Z,998.60
2022-12-16T09:03:36.392Z,998.52
2022-12-16T09:04:35.846Z,998.52
2022-12-16T09:05:35.854Z,998.55
2022-12-16T09:06:40.363Z,998.56
2022-12-16T09:07:36.809Z,998.55
2022-12-16T09:08:35.804Z,998.58
2022-12-16T09:09:35.790Z,998.61
2022-12-16T09:10:40.252Z,998.56
2022-12-16T09:11:35.766Z,998.58
2022-12-16T09:12:35.788Z,998.57
2022-12-16T09:13:36.254Z,998.62
2022-12-16T09:14:35.763Z,998.62
2022-12-16T09:15:35.780Z,998.65
2022-12-16T09:16:35.819Z,998.65
2022-12-16T09:17:35.714Z,998.64
2022-12-16T09:18:35.699Z,998.65
2022-12-16T09:19:35.686Z,998.68
2022-12-16T09:20:35.702Z,998.67
2022-12-16T09:21:35.665Z,998.62
2022-12-16T09:22:35.675Z,998.63
2022-12-16T09:23:35.929Z,998.63
2022-12-16T09:24:35.637Z,998.64
2022-12-16T09:25:35.640Z,998.63
2022-12-16T09:26:35.739Z,998.67
2022-12-16T09:27:35.604Z,998.66
2022-12-16T09:28:35.615Z,998.65
2022-12-16T09:29:37.386Z,998.67
2022-12-16T09:30:36.702Z,998.69
2022-12-16T09:31:35.674Z,998.69
2022-12-16T09:32:35.566Z,998.74
2022-12-16T09:33:36.292Z,998.77
2022-12-16T09:34:35.587Z,998.74
2022-12-16T09:35:35.532Z,998.62
2022-12-16T09:36:35.505Z,998.69
2022-12-16T09:37:35.510Z,998.72
2022-12-16T09:38:35.531Z,998.83
2022-12-16T09:39:35.495Z,998.81
2022-12-16T09:40:35.480Z,998.81
2022-12-16T09:41:39.651Z,998.79
2022-12-16T09:42:36.475Z,998.70
2022-12-16T09:43:35.923Z,998.76
2022-12-16T09:44:35.439Z,998.81
2022-12-16T09:45:35.418Z,998.84
2022-12-16T09:46:35.617Z,998.80
2022-12-16T09:47:35.445Z,998.82
2022-12-16T09:48:35.385Z,998.87
2022-12-16T09:49:35.393Z,998.85
2022-12-16T09:50:35.398Z,998.86
2022-12-16T09:51:35.349Z,998.91
2022-12-16T09:52:35.366Z,998.91
2022-12-16T09:53:35.811Z,998.89
2022-12-16T09:54:35.327Z,998.89
2022-12-16T09:55:35.311Z,998.91
2022-12-16T09:56:35.328Z,998.90
2022-12-16T09:57:35.305Z,998.91
2022-12-16T09:58:35.278Z,998.97
2022-12-16T09:59:35.272Z,998.99
2022-12-16T10:00:35.260Z,998.99
2022-12-16T10:01:35.475Z,998.99
2022-12-16T10:02:35.457Z,999.06
2022-12-16T10:03:35.659Z,999.08
2022-12-16T10:04:35.222Z,999.06
2022-12-16T10:05:35.210Z,999.09
2022-12-16T10:06:35.213Z,999.06
2022-12-16T10:07:35.190Z,999.07
2022-12-16T10:08:35.193Z,999.13
2022-12-16T10:09:35.184Z,999.13
2022-12-16T10:10:35.149Z,999.12
2022-12-16T10:11:35.145Z,999.14
2022-12-16T10:12:35.132Z,999.13
2022-12-16T10:13:35.440Z,999.09
2022-12-16T10:14:35.145Z,999.10
2022-12-16T10:15:35.152Z,999.09
2022-12-16T10:16:35.208Z,999.15
2022-12-16T10:17:35.099Z,999.11
2022-12-16T10:18:35.163Z,999.08
2022-12-16T10:19:35.056Z,999.09
2022-12-16T10:20:35.072Z,999.09
2022-12-16T10:21:35.036Z,999.09
2022-12-16T10:22:35.046Z,999.09
2022-12-16T10:23:35.414Z,999.07
2022-12-16T10:24:35.030Z,999.05
2022-12-16T10:25:34.996Z,999.07
2022-12-16T10:26:35.014Z,999.10
2022-12-16T10:27:34.975Z,999.13
2022-12-16T10:28:34.965Z,999.11
2022-12-16T10:29:34.949Z,999.13
2022-12-16T10:30:34.957Z,999.15
2022-12-16T10:31:35.018Z,999.13
2022-12-16T10:32:34.937Z,999.15
2022-12-16T10:33:35.554Z,999.16
2022-12-16T10:34:34.996Z,999.11
2022-12-16T10:35:34.908Z,999.14
2022-12-16T10:36:34.880Z,999.14
2022-12-16T10:37:34.869Z,999.21
2022-12-16T10:38:34.874Z,999.12
2022-12-16T10:39:34.869Z,999.19
2022-12-16T10:40:34.858Z,999.22
2022-12-16T10:41:34.883Z,999.20
2022-12-16T10:42:34.820Z,999.20
2022-12-16T10:43:35.142Z,999.18
2022-12-16T10:44:34.797Z,999.21
2022-12-16T10:45:34.795Z,999.24
2022-12-16T10:46:34.852Z,999.22
2022-12-16T10:47:34.787Z,999.24
2022-12-16T10:48:35.259Z,999.24
2022-12-16T10:49:34.966Z,999.25
2022-12-16T10:50:34.756Z,999.27
2022-12-16T10:51:34.740Z,999.28
2022-12-16T10:52:34.716Z,999.29
2022-12-16T10:53:35.333Z,999.32
2022-12-16T10:54:34.698Z,999.31
2022-12-16T10:55:34.692Z,999.25
2022-12-16T10:56:34.669Z,999.30
2022-12-16T10:57:34.682Z,999.32
2022-12-16T10:58:35.855Z,999.32
2022-12-16T10:59:34.637Z,999.32
2022-12-16T11:00:34.653Z,999.34
2022-12-16T11:01:34.769Z,999.31
2022-12-16T11:02:34.818Z,999.31
2022-12-16T11:03:35.155Z,999.33
2022-12-16T11:04:34.607Z,999.33
2022-12-16T11:05:34.591Z,999.37
2022-12-16T11:06:34.588Z,999.35
2022-12-16T11:07:34.559Z,999.36
2022-12-16T11:08:34.541Z,999.40
2022-12-16T11:09:34.547Z,999.37
2022-12-16T11:10:34.533Z,999.35
2022-12-16T11:11:34.536Z,999.35
2022-12-16T11:12:34.498Z,999.37
2022-12-16T11:13:34.777Z,999.35
2022-12-16T11:14:34.492Z,999.33
2022-12-16T11:15:38.403Z,999.34
2022-12-16T11:16:35.542Z,999.33
2022-12-16T11:17:34.448Z,999.30
2022-12-16T11:18:34.441Z,999.28
2022-12-16T11:19:34.452Z,999.28
2022-12-16T11:20:34.420Z,999.32
2022-12-16T11:21:34.401Z,999.29
2022-12-16T11:22:34.484Z,999.29
2022-12-16T11:23:35.044Z,999.23
2022-12-16T11:24:34.384Z,999.22
2022-12-16T11:25:34.360Z,999.21
2022-12-16T11:26:37.175Z,999.25
2022-12-16T11:27:34.336Z,999.28
2022-12-16T11:28:34.363Z,999.29
2022-12-16T11:29:34.324Z,999.26
2022-12-16T11:30:34.322Z,999.29
2022-12-16T11:31:34.377Z,999.30
2022-12-16T11:32:34.285Z,999.27
2022-12-16T11:33:34.710Z,999.31
2022-12-16T11:34:34.299Z,999.33
2022-12-16T11:35:34.261Z,999.30
2022-12-16T11:36:34.251Z,999.28
2022-12-16T11:37:34.236Z,999.34
2022-12-16T11:38:34.267Z,999.35
2022-12-16T11:39:34.216Z,999.31
2022-12-16T11:40:34.215Z,999.36
2022-12-16T11:41:34.209Z,999.41
2022-12-16T11:42:34.198Z,999.37
2022-12-16T11:43:34.672Z,999.36
2022-12-16T11:44:34.190Z,999.33
2022-12-16T11:45:34.149Z,999.35
2022-12-16T11:46:34.174Z,999.37
2022-12-16T11:47:34.125Z,999.35
2022-12-16T11:48:34.127Z,999.34
2022-12-16T11:49:34.127Z,999.29
2022-12-16T11:50:34.101Z,999.29
2022-12-16T11:51:34.091Z,999.33
2022-12-16T11:52:37.770Z,999.31
2022-12-16T11:53:34.443Z,999.32
2022-12-16T11:54:34.076Z,999.32
2022-12-16T11:56:03.408Z,999.37
2022-12-16T11:56:35.103Z,999.31
2022-12-16T11:57:34.038Z,999.34
2022-12-16T11:58:34.027Z,999.34
2022-12-16T11:59:34.016Z,999.37
2022-12-16T12:00:34.003Z,999.37
2022-12-16T12:01:34.033Z,999.34
2022-12-16T12:02:34.017Z,999.38
2022-12-16T12:03:34.393Z,999.42
2022-12-16T12:04:33.990Z,999.41
2022-12-16T12:05:33.954Z,999.39
2022-12-16T12:06:33.926Z,999.44
2022-12-16T12:07:33.918Z,999.42
2022-12-16T12:08:33.908Z,999.41
2022-12-16T12:09:33.894Z,999.44
2022-12-16T12:10:33.927Z,999.47
2022-12-16T12:11:33.885Z,999.46
2022-12-16T12:12:33.861Z,999.46
2022-12-16T12:13:34.227Z,999.50
2022-12-16T12:14:33.844Z,999.45
2022-12-16T12:15:33.847Z,999.42
2022-12-16T12:16:33.897Z,999.46
2022-12-16T12:17:33.825Z,999.50
2022-12-16T12:18:34.327Z,999.48
2022-12-16T12:19:33.781Z,999.47
2022-12-16T12:20:33.781Z,999.45
2022-12-16T12:21:33.787Z,999.50
2022-12-16T12:22:33.800Z,999.49
2022-12-16T12:23:34.120Z,999.47
2022-12-16T12:24:33.740Z,999.48
2022-12-16T12:25:33.723Z,999.48
2022-12-16T12:26:33.814Z,999.48
2022-12-16T12:27:33.706Z,999.48
2022-12-16T12:28:33.735Z,999.50
2022-12-16T12:29:33.678Z,999.54
2022-12-16T12:30:33.678Z,999.54
2022-12-16T12:31:33.728Z,999.55
2022-12-16T12:32:33.656Z,999.57
2022-12-16T12:33:33.996Z,999.58
2022-12-16T12:34:33.660Z,999.58
2022-12-16T12:35:33.620Z,999.56
2022-12-16T12:36:37.875Z,999.60
2022-12-16T12:37:33.594Z,999.63
2022-12-16T12:38:33.604Z,999.62
2022-12-16T12:39:33.580Z,999.63
2022-12-16T12:40:33.565Z,999.65
2022-12-16T12:41:33.562Z,999.69
2022-12-16T12:42:33.562Z,999.67
2022-12-16T12:43:35.672Z,999.62
2022-12-16T12:44:42.421Z,999.69
2022-12-16T12:45:34.523Z,999.73
2022-12-16T12:46:33.590Z,999.72
2022-12-16T12:47:33.486Z,999.70
2022-12-16T12:48:33.480Z,999.71
2022-12-16T12:49:33.486Z,999.71
2022-12-16T12:50:33.466Z,999.69
2022-12-16T12:51:33.463Z,999.71
2022-12-16T12:52:33.443Z,999.68
2022-12-16T12:53:33.745Z,999.74
2022-12-16T12:54:33.718Z,999.71
2022-12-16T12:55:33.400Z,999.71
2022-12-16T12:56:33.395Z,999.73
2022-12-16T12:57:33.399Z,999.74
2022-12-16T12:58:33.407Z,999.73
2022-12-16T12:59:33.374Z,999.71
2022-12-16T13:00:33.440Z,999.72
2022-12-16T13:01:33.542Z,999.74
2022-12-16T13:02:33.533Z,999.75
2022-12-16T13:03:33.926Z,999.77
2022-12-16T13:04:33.307Z,999.78
2022-12-16T13:05:33.308Z,999.76
2022-12-16T13:06:33.285Z,999.85
2022-12-16T13:07:33.308Z,999.82
2022-12-16T13:08:33.262Z,999.73
2022-12-16T13:09:33.280Z,999.81
2022-12-16T13:10:33.285Z,999.71
2022-12-16T13:11:35.443Z,999.68
2022-12-16T13:12:33.227Z,999.70
2022-12-16T13:13:33.672Z,999.70
2022-12-16T13:14:33.231Z,999.69
2022-12-16T13:15:33.236Z,999.74
2022-12-16T13:16:33.226Z,999.69
2022-12-16T13:17:33.175Z,999.71
2022-12-16T13:18:33.189Z,999.71
2022-12-16T13:19:33.149Z,999.70
2022-12-16T13:20:33.136Z,999.72
2022-12-16T13:21:33.139Z,999.66
2022-12-16T13:22:33.126Z,999.73
2022-12-16T13:23:33.429Z,999.75
2022-12-16T13:24:33.112Z,999.68
2022-12-16T13:25:33.084Z,999.73
2022-12-16T13:26:33.098Z,999.69
2022-12-16T13:27:33.074Z,999.71
2022-12-16T13:28:33.074Z,999.81
2022-12-16T13:29:33.044Z,999.82
2022-12-16T13:30:33.050Z,999.85
2022-12-16T13:31:33.087Z,999.81
2022-12-16T13:32:33.005Z,999.87
2022-12-16T13:33:33.341Z,999.86
2022-12-16T13:34:32.991Z,999.86
2022-12-16T13:35:33.014Z,999.91
2022-12-16T13:36:32.961Z,999.87
2022-12-16T13:37:34.051Z,999.92
2022-12-16T13:38:32.944Z,999.93
2022-12-16T13:39:32.937Z,999.94
2022-12-16T13:40:32.966Z,1000.00
2022-12-16T13:41:32.919Z,999.99
2022-12-16T13:42:32.905Z,999.95
2022-12-16T13:43:33.022Z,999.99
2022-12-16T13:44:32.881Z,999.97
2022-12-16T13:45:32.949Z,999.97
2022-12-16T13:46:32.874Z,1000.00
2022-12-16T13:47:32.848Z,1000.02
2022-12-16T13:48:32.855Z,1000.05
2022-12-16T13:49:32.829Z,1000.06
2022-12-16T13:50:32.815Z,1000.08
2022-12-16T13:51:32.826Z,1000.11
2022-12-16T13:52:32.804Z,1000.10
2022-12-16T13:53:33.168Z,1000.13
2022-12-16T13:54:32.789Z,1000.08
2022-12-16T13:55:32.794Z,1000.10
2022-12-16T13:56:32.756Z,1000.19
2022-12-16T13:57:32.767Z,1000.18
2022-12-16T13:58:32.732Z,1000.16
2022-12-16T13:59:32.788Z,1000.17
2022-12-16T14:00:36.385Z,1000.16
2022-12-16T14:01:32.855Z,1000.18
2022-12-16T14:02:32.931Z,1000.21
2022-12-16T14:03:33.122Z,1000.20
2022-12-16T14:04:32.682Z,1000.25
2022-12-16T14:05:32.664Z,1000.25
2022-12-16T14:06:32.637Z,1000.24
2022-12-16T14:07:32.664Z,1000.27
2022-12-16T14:08:32.642Z,1000.27
2022-12-16T14:09:32.614Z,1000.28
2022-12-16T14:10:32.603Z,1000.31
2022-12-16T14:11:32.658Z,1000.31
2022-12-16T14:12:32.582Z,1000.29
2022-12-16T14:13:32.967Z,1000.35
2022-12-16T14:14:32.559Z,1000.33
2022-12-16T14:15:32.547Z,1000.33
2022-12-16T14:16:32.566Z,1000.37
2022-12-16T14:17:32.543Z,1000.40
2022-12-16T14:18:32.536Z,1000.45
2022-12-16T14:19:32.532Z,1000.43
2022-12-16T14:20:32.497Z,1000.50
2022-12-16T14:21:32.488Z,1000.50
2022-12-16T14:22:32.495Z,1000.54
2022-12-16T14:23:55.938Z,1000.53
2022-12-16T14:24:33.468Z,1000.59
2022-12-16T14:25:32.453Z,1000.57
2022-12-16T14:26:32.441Z,1000.59
2022-12-16T14:27:32.426Z,1000.59
2022-12-16T14:28:32.422Z,1000.57
2022-12-16T14:29:32.414Z,1000.58
2022-12-16T14:30:32.396Z,1000.59
2022-12-16T14:31:32.441Z,1000.59
2022-12-16T14:32:32.392Z,1000.57
2022-12-16T14:33:32.926Z,1000.64
2022-12-16T14:34:32.366Z,1000.59
2022-12-16T14:35:32.346Z,1000.61
2022-12-16T14:36:32.364Z,1000.61
2022-12-16T14:37:32.328Z,1000.57
2022-12-16T14:38:32.318Z,1000.59
2022-12-16T14:39:32.314Z,1000.64
2022-12-16T14:40:32.287Z,1000.62
2022-12-16T14:41:32.273Z,1000.64
2022-12-16T14:42:32.266Z,1000.65
2022-12-16T14:43:32.633Z,1000.72
2022-12-16T14:44:32.264Z,1000.69
2022-12-16T14:45:32.270Z,1000.72
2022-12-16T14:46:32.329Z,1000.72
2022-12-16T14:47:32.254Z,1000.71
2022-12-16T14:48:32.228Z,1000.72
2022-12-16T14:49:32.196Z,1000.72
2022-12-16T14:50:32.202Z,1000.78
2022-12-16T14:51:32.177Z,1000.76
2022-12-16T14:52:32.211Z,1000.79
2022-12-16T14:53:32.580Z,1000.79
2022-12-16T14:54:32.146Z,1000.84
2022-12-16T14:55:32.142Z,1000.80
2022-12-16T14:56:32.123Z,1000.88
2022-12-16T14:57:32.102Z,1000.88
2022-12-16T14:58:32.137Z,1000.87
2022-12-16T14:59:32.109Z,1000.90
2022-12-16T15:00:32.102Z,1000.89
2022-12-16T15:01:32.372Z,1000.90
2022-12-16T15:02:32.330Z,1000.89
2022-12-16T15:03:32.579Z,1000.90
2022-12-16T15:04:32.233Z,1000.93
2022-12-16T15:05:32.054Z,1000.97
2022-12-16T15:06:32.025Z,1000.97
2022-12-16T15:07:32.012Z,1001.01
2022-12-16T15:08:32.353Z,1001.02
2022-12-16T15:09:31.976Z,1001.06
2022-12-16T15:10:31.965Z,1001.07
2022-12-16T15:11:31.989Z,1001.07
2022-12-16T15:12:31.948Z,1001.09
2022-12-16T15:13:32.433Z,1001.04
2022-12-16T15:14:31.923Z,1001.09
2022-12-16T15:15:31.948Z,1001.10
2022-12-16T15:16:31.938Z,1001.11
2022-12-16T15:17:31.906Z,1001.09
2022-12-16T15:18:31.919Z,1001.10
2022-12-16T15:19:31.880Z,1001.17
2022-12-16T15:20:31.875Z,1001.13
2022-12-16T15:21:31.876Z,1001.14
2022-12-16T15:22:31.853Z,1001.15
2022-12-16T15:23:32.225Z,1001.16
2022-12-16T15:24:31.818Z,1001.19
2022-12-16T15:25:31.839Z,1001.20
2022-12-16T15:26:31.814Z,1001.24
2022-12-16T15:27:31.821Z,1001.25
2022-12-16T15:28:31.792Z,1001.29
2022-12-16T15:29:31.775Z,1001.29
2022-12-16T15:30:31.790Z,1001.33
2022-12-16T15:31:31.846Z,1001.34
2022-12-16T15:32:31.733Z,1001.36
2022-12-16T15:33:32.244Z,1001.35
2022-12-16T15:34:31.718Z,1001.32
2022-12-16T15:35:31.719Z,1001.37
2022-12-16T15:36:31.700Z,1001.38
2022-12-16T15:37:31.719Z,1001.40
2022-12-16T15:38:31.688Z,1001.46
2022-12-16T15:39:31.702Z,1001.49
2022-12-16T15:40:31.656Z,1001.55
2022-12-16T15:41:31.646Z,1001.50
2022-12-16T15:42:31.673Z,1001.56
2022-12-16T15:43:32.003Z,1001.59
2022-12-16T15:44:31.617Z,1001.63
2022-12-16T15:45:31.614Z,1001.65
2022-12-16T15:46:31.661Z,1001.62
2022-12-16T15:47:31.589Z,1001.64
2022-12-16T15:48:31.614Z,1001.63
2022-12-16T15:49:31.588Z,1001.65
2022-12-16T15:50:31.547Z,1001.69
2022-12-16T15:51:31.542Z,1001.68
2022-12-16T15:52:31.544Z,1001.79
2022-12-16T15:53:32.010Z,1001.82
2022-12-16T15:54:31.616Z,1001.85
2022-12-16T15:55:31.514Z,1001.79
2022-12-16T15:56:31.483Z,1001.83
2022-12-16T15:57:31.474Z,1001.83
2022-12-16T15:58:31.476Z,1001.89
2022-12-16T15:59:31.465Z,1001.89
2022-12-16T16:00:31.459Z,1001.94
2022-12-16T16:01:31.520Z,1001.92
2022-12-16T16:02:31.561Z,1001.94
2022-12-16T16:03:31.844Z,1001.90
2022-12-16T16:04:31.396Z,1001.90
2022-12-16T16:05:31.401Z,1001.87
2022-12-16T16:06:31.396Z,1001.91
2022-12-16T16:07:31.382Z,1001.90
2022-12-16T16:08:31.359Z,1001.97
2022-12-16T16:09:31.352Z,1001.91
2022-12-16T16:10:31.353Z,1001.95
2022-12-16T16:11:31.351Z,1001.97
2022-12-16T16:12:31.327Z,1002.02
2022-12-16T16:13:31.762Z,1002.07
2022-12-16T16:14:31.290Z,1002.03
2022-12-16T16:15:31.419Z,1002.07
2022-12-16T16:16:31.271Z,1002.06
2022-12-16T16:17:31.303Z,1002.11
2022-12-16T16:18:31.924Z,1002.12
2022-12-16T16:19:31.262Z,1002.06
2022-12-16T16:20:31.258Z,1002.11
2022-12-16T16:21:31.225Z,1002.11
2022-12-16T16:22:31.204Z,1002.15
2022-12-16T16:23:31.706Z,1002.13
2022-12-16T16:24:31.191Z,1002.11
2022-12-16T16:25:31.177Z,1002.15
2022-12-16T16:26:31.209Z,1002.12
2022-12-16T16:27:31.155Z,1002.15
2022-12-16T16:28:31.322Z,1002.13
2022-12-16T16:29:31.139Z,1002.17
2022-12-16T16:30:31.129Z,1002.16
2022-12-16T16:31:31.160Z,1002.21
2022-12-16T16:32:31.109Z,1002.22
2022-12-16T16:33:31.446Z,1002.25
2022-12-16T16:34:31.078Z,1002.30
2022-12-16T16:35:31.094Z,1002.33
2022-12-16T16:36:31.071Z,1002.34
2022-12-16T16:37:31.053Z,1002.39
2022-12-16T16:38:31.042Z,1002.43
2022-12-16T16:39:31.049Z,1002.43
2022-12-16T16:40:31.015Z,1002.44
2022-12-16T16:41:31.028Z,1002.43
2022-12-16T16:42:31.018Z,1002.44
2022-12-16T16:43:31.363Z,1002.47
2022-12-16T16:44:30.978Z,1002.46
2022-12-16T16:45:31.013Z,1002.49
2022-12-16T16:46:31.016Z,1002.48
2022-12-16T16:47:30.961Z,1002.52
2022-12-16T16:48:30.942Z,1002.54
2022-12-16T16:49:30.976Z,1002.57
2022-12-16T16:50:30.916Z,1002.60
2022-12-16T16:51:30.902Z,1002.60
2022-12-16T16:52:30.912Z,1002.61
2022-12-16T16:53:31.048Z,1002.62
2022-12-16T16:54:30.894Z,1002.69
2022-12-16T16:55:30.932Z,1002.72
2022-12-16T16:56:30.855Z,1002.76
2022-12-16T16:57:30.845Z,1002.78
2022-12-16T16:58:30.851Z,1002.79
2022-12-16T16:59:30.830Z,1002.76
2022-12-16T17:00:30.945Z,1002.84
2022-12-16T17:01:30.939Z,1002.84
2022-12-16T17:02:32.789Z,1002.83
2022-12-16T17:03:31.179Z,1002.80
2022-12-16T17:04:30.936Z,1002.83
2022-12-16T17:05:30.774Z,1002.83
2022-12-16T17:06:30.740Z,1002.83
2022-12-16T17:07:30.729Z,1002.89
2022-12-16T17:08:30.748Z,1002.88
2022-12-16T17:09:30.715Z,1002.90
2022-12-16T17:10:30.697Z,1002.92
2022-12-16T17:11:30.717Z,1002.91
2022-12-16T17:12:30.712Z,1002.91
2022-12-16T17:13:31.147Z,1002.91
2022-12-16T17:14:30.708Z,1002.95
2022-12-16T17:15:30.654Z,1002.90
2022-12-16T17:16:30.653Z,1002.95
2022-12-16T17:17:30.638Z,1002.91
2022-12-16T17:18:30.608Z,1002.95
2022-12-16T17:19:30.612Z,1002.96
2022-12-16T17:20:30.612Z,1002.93
2022-12-16T17:21:30.584Z,1002.95
2022-12-16T17:22:30.569Z,1002.96
2022-12-16T17:23:31.085Z,1002.93
2022-12-16T17:24:30.549Z,1002.99
2022-12-16T17:25:30.578Z,1002.98
2022-12-16T17:26:30.527Z,1003.01
2022-12-16T17:27:30.524Z,1003.01
2022-12-16T17:28:30.511Z,1003.02
2022-12-16T17:29:30.508Z,1003.03
2022-12-16T17:30:30.507Z,1003.04
2022-12-16T17:31:30.677Z,1003.06
2022-12-16T17:32:30.476Z,1003.08
2022-12-16T17:33:30.595Z,1003.10
2022-12-16T17:34:30.443Z,1003.05
2022-12-16T17:35:30.450Z,1003.10
2022-12-16T17:36:32.100Z,1003.13
2022-12-16T17:37:30.413Z,1003.11
2022-12-16T17:38:30.404Z,1003.14
2022-12-16T17:39:30.415Z,1003.20
2022-12-16T17:40:30.393Z,1003.18
2022-12-16T17:41:30.381Z,1003.21
2022-12-16T17:42:30.359Z,1003.22
2022-12-16T17:43:30.647Z,1003.25
2022-12-16T17:44:30.350Z,1003.24
2022-12-16T17:45:30.333Z,1003.29
2022-12-16T17:46:30.500Z,1003.31
2022-12-16T17:47:30.327Z,1003.32
2022-12-16T17:48:30.295Z,1003.35
2022-12-16T17:49:30.316Z,1003.38
2022-12-16T17:50:30.285Z,1003.39